createdAt,value
2019-03-03T00:00:18.014Z,0.00
2019-03-03T00:01:18.003Z,0.00
2019-03-03T00:02:17.993Z,0.00
2019-03-03T00:03:17.982Z,0.00
2019-03-03T00:04:17.979Z,0.00
2019-03-03T00:05:17.972Z,0.00
2019-03-03T00:06:17.964Z,0.00
2019-03-03T00:07:17.985Z,0.00
2019-03-03T00:08:17.951Z,0.00
2019-03-03T00:09:17.934Z,0.00
2019-03-03T00:10:18.051Z,0.00
2019-03-03T00:11:17.932Z,0.00
2019-03-03T00:12:17.919Z,0.00
2019-03-03T00:13:17.920Z,0.00
2019-03-03T00:14:17.913Z,0.00
2019-03-03T00:15:17.902Z,0.00
2019-03-03T00:16:17.903Z,0.00
2019-03-03T00:17:17.889Z,0.00
2019-03-03T00:18:17.886Z,0.00
2019-03-03T00:19:17.878Z,0.00
2019-03-03T00:20:17.869Z,0.00
2019-03-03T00:21:17.864Z,0.00
2019-03-03T00:22:17.860Z,0.00
2019-03-03T00:23:17.867Z,0.00
2019-03-03T00:24:17.835Z,0.00
2019-03-03T00:25:17.841Z,0.00
2019-03-03T00:26:17.835Z,0.00
2019-03-03T00:27:17.821Z,0.00
2019-03-03T00:28:17.822Z,0.00
2019-03-03T00:29:17.814Z,0.00
2019-03-03T00:30:17.806Z,0.00
2019-03-03T00:31:17.810Z,0.00
2019-03-03T00:32:17.806Z,0.00
2019-03-03T00:33:17.782Z,0.00
2019-03-03T00:34:17.805Z,0.00
2019-03-03T00:35:17.776Z,0.00
2019-03-03T00:36:17.767Z,0.00
2019-03-03T00:37:17.756Z,0.00
2019-03-03T00:38:17.759Z,0.00
2019-03-03T00:39:17.741Z,0.00
2019-03-03T00:40:17.734Z,0.00
2019-03-03T00:41:17.740Z,0.00
2019-03-03T00:42:17.728Z,0.00
2019-03-03T00:43:17.720Z,0.00
2019-03-03T00:44:17.716Z,0.00
2019-03-03T00:45:17.704Z,0.00
2019-03-03T00:46:17.698Z,0.00
2019-03-03T00:47:17.715Z,0.00
2019-03-03T00:48:17.685Z,0.00
2019-03-03T00:49:17.682Z,0.00
2019-03-03T00:50:17.665Z,0.00
2019-03-03T00:51:17.666Z,0.00
2019-03-03T00:52:17.663Z,0.00
2019-03-03T00:53:17.655Z,0.00
2019-03-03T00:54:17.640Z,0.00
2019-03-03T00:55:17.633Z,0.00
2019-03-03T00:56:17.809Z,0.00
2019-03-03T00:57:17.630Z,0.00
2019-03-03T00:58:17.619Z,0.00
2019-03-03T00:59:17.617Z,0.00
2019-03-03T01:00:17.606Z,0.00
2019-03-03T01:01:17.603Z,0.00
2019-03-03T01:02:17.588Z,0.00
2019-03-03T01:03:17.588Z,0.00
2019-03-03T01:04:17.581Z,0.00
2019-03-03T01:05:17.570Z,0.00
2019-03-03T01:06:17.564Z,0.00
2019-03-03T01:07:17.567Z,0.00
2019-03-03T01:08:17.558Z,0.00
2019-03-03T01:09:17.554Z,0.00
2019-03-03T01:10:17.538Z,0.00
2019-03-03T01:11:17.539Z,0.00
2019-03-03T01:12:17.533Z,0.00
2019-03-03T01:13:17.522Z,0.00
2019-03-03T01:14:17.524Z,0.00
2019-03-03T01:15:17.546Z,0.00
2019-03-03T01:16:17.499Z,0.00
2019-03-03T01:17:17.496Z,0.00
2019-03-03T01:18:17.511Z,0.00
2019-03-03T01:19:17.545Z,0.00
2019-03-03T01:20:17.479Z,0.00
2019-03-03T01:21:17.473Z,0.00
2019-03-03T01:22:17.468Z,0.00
2019-03-03T01:23:17.458Z,0.00
2019-03-03T01:24:17.457Z,0.00
2019-03-03T01:25:17.445Z,0.00
2019-03-03T01:26:17.442Z,0.00
2019-03-03T01:27:17.436Z,0.00
2019-03-03T01:28:17.426Z,0.00
2019-03-03T01:29:17.423Z,0.00
2019-03-03T01:30:17.415Z,0.00
2019-03-03T01:31:17.409Z,0.00
2019-03-03T01:32:17.401Z,0.00
2019-03-03T01:33:17.397Z,0.00
2019-03-03T01:34:17.384Z,0.00
2019-03-03T01:35:17.384Z,0.00
2019-03-03T01:36:17.380Z,0.00
2019-03-03T01:37:17.371Z,0.00
2019-03-03T01:38:17.366Z,0.00
2019-03-03T01:39:17.357Z,0.00
2019-03-03T01:40:17.357Z,0.00
2019-03-03T01:41:17.344Z,0.00
2019-03-03T01:42:17.332Z,0.00
2019-03-03T01:43:17.339Z,0.00
2019-03-03T01:44:17.373Z,0.00
2019-03-03T01:45:17.323Z,0.00
2019-03-03T01:46:17.337Z,0.00
2019-03-03T01:47:17.306Z,0.00
2019-03-03T01:48:17.298Z,0.00
2019-03-03T01:49:17.294Z,0.00
2019-03-03T01:50:17.319Z,0.00
2019-03-03T01:51:17.279Z,0.00
2019-03-03T01:52:17.273Z,0.00
2019-03-03T01:53:17.266Z,0.00
2019-03-03T01:54:17.269Z,0.00
2019-03-03T01:55:17.261Z,0.00
2019-03-03T01:56:17.243Z,0.00
2019-03-03T01:57:17.245Z,0.00
2019-03-03T01:58:17.237Z,0.00
2019-03-03T01:59:17.228Z,0.00
2019-03-03T02:00:17.220Z,0.00
2019-03-03T02:01:17.220Z,0.00
2019-03-03T02:02:17.212Z,0.00
2019-03-03T02:03:26.859Z,0.00
2019-03-03T02:05:21.686Z,0.00
2019-03-03T02:06:21.667Z,0.00
2019-03-03T02:07:21.661Z,0.00
2019-03-03T02:08:21.653Z,0.00
2019-03-03T02:09:21.651Z,0.00
2019-03-03T02:10:21.656Z,0.00
2019-03-03T02:11:21.635Z,0.00
2019-03-03T02:12:21.625Z,0.00
2019-03-03T02:13:21.618Z,0.00
2019-03-03T02:14:21.625Z,0.00
2019-03-03T02:15:21.608Z,0.00
2019-03-03T02:16:21.600Z,0.00
2019-03-03T02:17:21.599Z,0.00
2019-03-03T02:18:21.586Z,0.00
2019-03-03T02:19:21.583Z,0.00
2019-03-03T02:20:21.568Z,0.00
2019-03-03T02:21:21.573Z,0.00
2019-03-03T02:22:21.565Z,0.00
2019-03-03T02:23:30.211Z,0.00
2019-03-03T02:25:26.031Z,0.00
2019-03-03T02:26:26.026Z,0.00
2019-03-03T02:27:26.005Z,0.00
2019-03-03T02:28:26.000Z,0.00
2019-03-03T02:29:25.990Z,0.00
2019-03-03T02:30:26.021Z,0.00
2019-03-03T02:31:25.980Z,0.00
2019-03-03T02:32:25.984Z,0.00
2019-03-03T02:33:25.986Z,0.00
2019-03-03T02:34:25.958Z,0.00
2019-03-03T02:35:25.955Z,0.00
2019-03-03T02:36:25.953Z,0.00
2019-03-03T02:37:25.935Z,0.00
2019-03-03T02:38:25.930Z,0.00
2019-03-03T02:39:25.954Z,0.00
2019-03-03T02:40:25.923Z,0.00
2019-03-03T02:41:25.915Z,0.00
2019-03-03T02:42:25.911Z,0.00
2019-03-03T02:43:25.903Z,0.00
2019-03-03T02:44:25.910Z,0.00
2019-03-03T02:45:25.896Z,0.00
2019-03-03T02:46:25.883Z,0.00
2019-03-03T02:47:25.872Z,0.00
2019-03-03T02:48:25.887Z,0.00
2019-03-03T02:49:25.870Z,0.00
2019-03-03T02:50:25.859Z,0.00
2019-03-03T02:51:25.855Z,0.00
2019-03-03T02:52:25.846Z,0.00
2019-03-03T02:53:25.833Z,0.00
2019-03-03T02:54:25.832Z,0.00
2019-03-03T02:55:25.820Z,0.00
2019-03-03T03:14:09.036Z,0.00
2019-03-03T03:15:09.001Z,0.00
2019-03-03T03:16:08.994Z,0.00
2019-03-03T03:17:08.979Z,0.00
2019-03-03T03:18:08.966Z,0.00
2019-03-03T03:19:08.960Z,0.00
2019-03-03T03:20:08.956Z,0.00
2019-03-03T03:21:08.938Z,0.00
2019-03-03T03:22:08.947Z,0.00
2019-03-03T03:23:08.923Z,0.00
2019-03-03T03:24:08.914Z,0.00
2019-03-03T03:25:08.910Z,0.00
2019-03-03T03:26:08.906Z,0.00
2019-03-03T03:27:08.894Z,0.00
2019-03-03T03:28:08.890Z,0.00
2019-03-03T03:29:08.897Z,0.00
2019-03-03T03:30:08.872Z,0.00
2019-03-03T03:31:08.864Z,0.00
2019-03-03T03:32:08.855Z,0.00
2019-03-03T03:33:08.854Z,0.00
2019-03-03T03:34:08.842Z,0.00
2019-03-03T03:35:08.846Z,0.00
2019-03-03T03:36:08.838Z,0.00
2019-03-03T03:37:08.837Z,0.00
2019-03-03T03:38:08.831Z,0.00
2019-03-03T03:39:08.816Z,0.00
2019-03-03T03:40:08.799Z,0.00
2019-03-03T03:41:08.807Z,0.00
2019-03-03T03:42:08.805Z,0.00
2019-03-03T03:43:08.792Z,0.00
2019-03-03T03:44:08.782Z,0.00
2019-03-03T03:45:08.774Z,0.00
2019-03-03T03:46:08.762Z,0.00
2019-03-03T03:47:08.757Z,0.00
2019-03-03T03:48:08.756Z,0.00
2019-03-03T03:49:08.744Z,0.00
2019-03-03T03:50:08.738Z,0.00
2019-03-03T03:51:08.729Z,0.00
2019-03-03T03:52:08.725Z,0.00
2019-03-03T03:53:08.723Z,0.00
2019-03-03T03:54:08.708Z,0.00
2019-03-03T03:55:08.707Z,0.00
2019-03-03T03:56:08.718Z,0.00
2019-03-03T03:57:08.688Z,0.00
2019-03-03T03:58:08.725Z,0.00
2019-03-03T03:59:08.675Z,0.00
2019-03-03T04:00:08.667Z,0.00
2019-03-03T04:01:08.681Z,0.00
2019-03-03T04:02:08.659Z,0.00
2019-03-03T04:03:08.667Z,0.00
2019-03-03T04:04:08.656Z,0.00
2019-03-03T04:05:08.661Z,0.00
2019-03-03T04:06:08.626Z,0.00
2019-03-03T04:07:08.626Z,0.00
2019-03-03T04:08:08.617Z,0.00
2019-03-03T04:09:08.620Z,0.00
2019-03-03T04:10:08.603Z,0.00
2019-03-03T04:11:08.599Z,0.00
2019-03-03T04:12:08.609Z,0.00
2019-03-03T04:13:08.586Z,0.00
2019-03-03T04:14:08.612Z,0.00
2019-03-03T04:15:08.573Z,0.00
2019-03-03T04:16:08.579Z,0.00
2019-03-03T04:17:08.554Z,0.00
2019-03-03T04:18:08.548Z,0.00
2019-03-03T04:19:08.609Z,0.00
2019-03-03T04:20:08.549Z,0.00
2019-03-03T04:21:08.533Z,0.00
2019-03-03T04:22:08.531Z,0.00
2019-03-03T04:23:08.528Z,0.00
2019-03-03T04:24:08.510Z,0.00
2019-03-03T04:25:08.511Z,0.00
2019-03-03T04:26:08.547Z,0.00
2019-03-03T04:27:08.526Z,0.00
2019-03-03T04:28:08.496Z,0.00
2019-03-03T04:29:08.478Z,0.00
2019-03-03T04:30:08.473Z,0.00
2019-03-03T04:31:08.462Z,0.00
2019-03-03T04:32:08.459Z,0.00
2019-03-03T04:33:08.450Z,0.00
2019-03-03T04:34:08.459Z,0.00
2019-03-03T04:35:08.444Z,0.00
2019-03-03T04:36:08.437Z,0.00
2019-03-03T04:37:08.423Z,0.00
2019-03-03T04:38:08.422Z,0.00
2019-03-03T04:39:08.408Z,0.00
2019-03-03T04:40:08.430Z,0.00
2019-03-03T04:41:08.414Z,0.00
2019-03-03T04:42:08.393Z,0.00
2019-03-03T04:43:08.421Z,0.00
2019-03-03T04:44:08.391Z,0.00
2019-03-03T04:45:08.393Z,0.00
2019-03-03T04:46:08.375Z,0.00
2019-03-03T04:47:08.377Z,0.00
2019-03-03T04:48:08.399Z,0.00
2019-03-03T04:49:08.345Z,0.00
2019-03-03T04:50:08.352Z,0.00
2019-03-03T04:51:08.356Z,0.00
2019-03-03T04:52:08.331Z,0.00
2019-03-03T04:53:08.330Z,0.00
2019-03-03T04:54:08.354Z,0.00
2019-03-03T04:55:08.311Z,0.00
2019-03-03T04:56:08.300Z,0.00
2019-03-03T04:57:08.300Z,0.00
2019-03-03T04:58:08.292Z,0.00
2019-03-03T04:59:08.284Z,0.00
2019-03-03T05:00:08.314Z,0.00
2019-03-03T05:01:08.310Z,0.00
2019-03-03T05:02:08.268Z,0.00
2019-03-03T05:03:08.262Z,0.00
2019-03-03T05:04:08.270Z,0.00
2019-03-03T05:05:08.254Z,0.00
2019-03-03T05:06:08.243Z,0.00
2019-03-03T05:07:08.238Z,0.00
2019-03-03T05:08:08.230Z,0.00
2019-03-03T05:09:08.219Z,0.00
2019-03-03T05:10:08.213Z,0.00
2019-03-03T05:11:08.211Z,0.00
2019-03-03T05:12:08.205Z,0.00
2019-03-03T05:13:08.190Z,0.00
2019-03-03T05:14:08.186Z,0.00
2019-03-03T05:15:08.186Z,0.00
2019-03-03T05:16:08.175Z,0.00
2019-03-03T05:17:08.800Z,0.00
2019-03-03T05:18:08.174Z,0.00
2019-03-03T05:19:08.171Z,0.00
2019-03-03T05:20:08.151Z,0.00
2019-03-03T05:21:08.141Z,0.00
2019-03-03T05:22:08.152Z,0.00
2019-03-03T05:23:08.160Z,0.00
2019-03-03T05:24:08.129Z,0.00
2019-03-03T05:25:08.118Z,0.00
2019-03-03T05:26:08.113Z,0.00
2019-03-03T05:27:08.111Z,0.00
2019-03-03T05:28:08.100Z,0.00
2019-03-03T05:29:08.095Z,0.00
2019-03-03T05:30:08.103Z,0.00
2019-03-03T05:31:08.084Z,0.00
2019-03-03T05:32:08.085Z,0.00
2019-03-03T05:33:08.069Z,0.00
2019-03-03T05:34:08.088Z,0.00
2019-03-03T05:35:08.061Z,0.00
2019-03-03T05:36:08.053Z,0.00
2019-03-03T05:37:08.054Z,0.00
2019-03-03T05:38:08.063Z,0.00
2019-03-03T05:39:08.031Z,0.00
2019-03-03T05:40:08.024Z,0.00
2019-03-03T05:41:08.025Z,0.00
2019-03-03T05:42:08.012Z,0.00
2019-03-03T05:43:08.010Z,0.00
2019-03-03T05:44:08.008Z,0.00
2019-03-03T05:45:08.006Z,0.00
2019-03-03T05:46:07.992Z,0.00
2019-03-03T05:47:07.988Z,0.00
2019-03-03T05:48:07.985Z,0.00
2019-03-03T05:49:07.979Z,0.00
2019-03-03T05:50:07.968Z,0.00
2019-03-03T05:51:07.962Z,0.00
2019-03-03T05:52:07.958Z,0.00
2019-03-03T05:53:07.948Z,0.00
2019-03-03T05:54:07.951Z,4.00
2019-03-03T05:55:07.939Z,0.00
2019-03-03T05:56:07.927Z,4.00
2019-03-03T05:57:07.934Z,0.00
2019-03-03T05:58:07.924Z,4.00
2019-03-03T05:59:07.910Z,4.00
2019-03-03T06:00:07.896Z,4.00
2019-03-03T06:01:07.904Z,8.00
2019-03-03T06:02:07.892Z,8.00
2019-03-03T06:03:07.883Z,4.00
2019-03-03T06:04:07.889Z,8.00
2019-03-03T06:05:07.872Z,12.00
2019-03-03T06:06:07.864Z,12.00
2019-03-03T06:07:07.858Z,8.00
2019-03-03T06:08:07.847Z,12.00
2019-03-03T06:09:07.849Z,12.00
2019-03-03T06:10:07.840Z,8.00
2019-03-03T06:11:07.839Z,16.00
2019-03-03T06:12:07.825Z,12.00
2019-03-03T06:13:07.820Z,16.00
2019-03-03T06:14:07.825Z,16.00
2019-03-03T06:15:07.847Z,20.00
2019-03-03T06:16:07.802Z,20.00
2019-03-03T06:17:07.801Z,24.00
2019-03-03T06:18:07.829Z,28.00
2019-03-03T06:19:07.783Z,28.00
2019-03-03T06:20:07.778Z,32.00
2019-03-03T06:21:07.768Z,32.00
2019-03-03T06:22:07.759Z,28.00
2019-03-03T06:23:07.761Z,32.00
2019-03-03T06:24:07.745Z,28.00
2019-03-03T06:25:07.742Z,28.00
2019-03-03T06:26:07.729Z,32.00
2019-03-03T06:27:07.722Z,32.00
2019-03-03T06:28:07.721Z,36.00
2019-03-03T06:29:07.759Z,40.00
2019-03-03T06:30:07.705Z,44.00
2019-03-03T06:31:07.695Z,60.00
2019-03-03T06:32:07.693Z,68.00
2019-03-03T06:33:07.686Z,76.00
2019-03-03T06:34:07.676Z,72.00
2019-03-03T06:35:07.673Z,76.00
2019-03-03T06:36:07.671Z,76.00
2019-03-03T06:37:07.656Z,72.00
2019-03-03T06:38:07.686Z,68.00
2019-03-03T06:39:07.644Z,68.00
2019-03-03T06:40:07.643Z,76.00
2019-03-03T06:41:07.634Z,76.00
2019-03-03T06:42:07.634Z,80.00
2019-03-03T06:43:07.624Z,84.00
2019-03-03T06:44:07.615Z,88.00
2019-03-03T06:45:07.604Z,92.00
2019-03-03T06:46:07.602Z,100.00
2019-03-03T06:47:07.591Z,104.00
2019-03-03T06:48:07.586Z,108.00
2019-03-03T06:49:07.584Z,112.00
2019-03-03T06:50:07.621Z,120.00
2019-03-03T06:51:07.572Z,124.00
2019-03-03T06:52:07.563Z,132.00
2019-03-03T06:53:07.547Z,132.00
2019-03-03T06:54:07.553Z,128.00
2019-03-03T06:55:07.538Z,136.00
2019-03-03T06:56:07.533Z,136.00
2019-03-03T06:57:07.525Z,136.00
2019-03-03T06:58:07.534Z,132.00
2019-03-03T06:59:07.506Z,128.00
2019-03-03T07:00:07.508Z,120.00
2019-03-03T07:01:07.493Z,124.00
2019-03-03T07:02:07.495Z,124.00
2019-03-03T07:03:07.492Z,120.00
2019-03-03T07:04:07.481Z,124.00
2019-03-03T07:05:07.471Z,128.00
2019-03-03T07:06:07.459Z,136.00
2019-03-03T07:07:07.458Z,140.00
2019-03-03T07:08:07.448Z,148.00
2019-03-03T07:09:07.448Z,160.00
2019-03-03T07:10:07.438Z,160.00
2019-03-03T07:11:07.433Z,156.00
2019-03-03T07:12:07.436Z,152.00
2019-03-03T07:13:07.424Z,140.00
2019-03-03T07:14:07.408Z,148.00
2019-03-03T07:15:07.401Z,144.00
2019-03-03T07:16:07.394Z,140.00
2019-03-03T07:17:07.390Z,144.00
2019-03-03T07:18:07.388Z,144.00
2019-03-03T07:19:07.380Z,144.00
2019-03-03T07:20:07.375Z,152.00
2019-03-03T07:21:07.367Z,164.00
2019-03-03T07:22:07.385Z,156.00
2019-03-03T07:23:07.350Z,172.00
2019-03-03T07:24:07.343Z,180.00
2019-03-03T07:25:07.345Z,184.00
2019-03-03T07:26:07.324Z,188.00
2019-03-03T07:27:07.327Z,200.00
2019-03-03T07:28:07.330Z,204.00
2019-03-03T07:29:07.304Z,232.00
2019-03-03T07:30:07.317Z,204.00
2019-03-03T07:31:07.327Z,264.00
2019-03-03T07:32:07.299Z,292.00
2019-03-03T07:33:07.283Z,304.00
2019-03-03T07:34:07.289Z,332.00
2019-03-03T07:35:07.283Z,352.00
2019-03-03T07:36:07.282Z,376.00
2019-03-03T07:37:07.335Z,416.00
2019-03-03T07:38:07.289Z,452.00
2019-03-03T07:39:07.243Z,472.00
2019-03-03T07:40:07.326Z,508.00
2019-03-03T07:41:07.241Z,520.00
2019-03-03T07:42:07.237Z,504.00
2019-03-03T07:43:07.288Z,472.00
2019-03-03T07:44:07.261Z,448.00
2019-03-03T07:45:15.875Z,464.00
2019-03-03T07:47:12.714Z,484.00
2019-03-03T07:48:12.681Z,496.00
2019-03-03T07:49:12.685Z,500.00
2019-03-03T07:50:12.681Z,504.00
2019-03-03T07:51:12.667Z,492.00
2019-03-03T07:52:12.661Z,484.00
2019-03-03T07:53:12.650Z,488.00
2019-03-03T07:54:12.646Z,492.00
2019-03-03T07:55:12.635Z,468.00
2019-03-03T07:56:12.625Z,464.00
2019-03-03T07:57:12.619Z,452.00
2019-03-03T07:58:12.632Z,468.00
2019-03-03T07:59:12.611Z,480.00
2019-03-03T08:00:12.609Z,452.00
2019-03-03T08:01:12.601Z,452.00
2019-03-03T08:02:12.595Z,440.00
2019-03-03T08:03:12.588Z,456.00
2019-03-03T08:04:12.575Z,468.00
2019-03-03T08:05:12.578Z,444.00
2019-03-03T08:06:12.566Z,432.00
2019-03-03T08:07:12.558Z,392.00
2019-03-03T08:08:12.557Z,392.00
2019-03-03T08:09:12.555Z,400.00
2019-03-03T08:10:12.546Z,412.00
2019-03-03T08:11:12.541Z,432.00
2019-03-03T08:12:12.527Z,448.00
2019-03-03T08:13:12.537Z,452.00
2019-03-03T08:14:12.529Z,428.00
2019-03-03T08:15:12.510Z,420.00
2019-03-03T08:16:12.504Z,384.00
2019-03-03T08:17:12.507Z,388.00
2019-03-03T08:18:12.499Z,368.00
2019-03-03T08:19:12.496Z,376.00
2019-03-03T08:20:12.479Z,372.00
2019-03-03T08:21:12.494Z,356.00
2019-03-03T08:22:12.497Z,348.00
2019-03-03T08:23:12.515Z,344.00
2019-03-03T08:24:12.468Z,344.00
2019-03-03T08:25:12.488Z,352.00
2019-03-03T08:26:12.455Z,360.00
2019-03-03T08:27:12.436Z,364.00
2019-03-03T08:28:12.432Z,384.00
2019-03-03T08:29:12.423Z,380.00
2019-03-03T08:30:12.420Z,388.00
2019-03-03T08:31:12.417Z,408.00
2019-03-03T08:32:12.404Z,444.00
2019-03-03T08:33:12.401Z,460.00
2019-03-03T08:34:12.397Z,488.00
2019-03-03T08:35:12.395Z,500.00
2019-03-03T08:36:12.384Z,500.00
2019-03-03T08:37:12.393Z,540.00
2019-03-03T08:38:12.391Z,604.00
2019-03-03T08:39:12.356Z,616.00
2019-03-03T08:40:12.356Z,628.00
2019-03-03T08:41:12.353Z,608.00
2019-03-03T08:42:12.351Z,584.00
2019-03-03T08:43:12.393Z,560.00
2019-03-03T08:44:12.342Z,520.00
2019-03-03T08:45:12.326Z,532.00
2019-03-03T08:46:12.327Z,540.00
2019-03-03T08:47:12.310Z,568.00
2019-03-03T08:48:12.304Z,576.00
2019-03-03T08:49:12.319Z,544.00
2019-03-03T08:50:12.334Z,568.00
2019-03-03T08:51:12.319Z,508.00
2019-03-03T08:52:12.336Z,480.00
2019-03-03T08:53:12.293Z,440.00
2019-03-03T08:54:12.272Z,408.00
2019-03-03T08:55:12.286Z,376.00
2019-03-03T08:56:12.263Z,388.00
2019-03-03T08:57:12.253Z,392.00
2019-03-03T08:58:12.244Z,416.00
2019-03-03T08:59:12.242Z,408.00
2019-03-03T09:00:12.270Z,436.00
2019-03-03T09:01:12.242Z,456.00
2019-03-03T09:02:12.239Z,472.00
2019-03-03T09:03:12.220Z,492.00
2019-03-03T09:04:12.210Z,500.00
2019-03-03T09:05:12.202Z,560.00
2019-03-03T09:06:12.198Z,576.00
2019-03-03T09:07:12.192Z,632.00
2019-03-03T09:08:12.201Z,724.00
2019-03-03T09:09:12.195Z,780.00
2019-03-03T09:10:12.167Z,856.00
2019-03-03T09:11:12.164Z,884.00
2019-03-03T09:12:12.155Z,896.00
2019-03-03T09:13:12.159Z,948.00
2019-03-03T09:14:12.157Z,948.00
2019-03-03T09:15:12.138Z,932.00
2019-03-03T09:16:12.145Z,896.00
2019-03-03T09:17:12.129Z,840.00
2019-03-03T09:18:12.143Z,836.00
2019-03-03T09:19:12.146Z,848.00
2019-03-03T09:20:12.106Z,852.00
2019-03-03T09:21:12.105Z,840.00
2019-03-03T09:22:12.094Z,864.00
2019-03-03T09:23:12.104Z,836.00
2019-03-03T09:24:12.102Z,832.00
2019-03-03T09:25:12.082Z,864.00
2019-03-03T09:26:12.076Z,912.00
2019-03-03T09:27:12.073Z,972.00
2019-03-03T09:28:12.062Z,1072.00
2019-03-03T09:29:12.062Z,1068.00
2019-03-03T09:30:12.063Z,1112.00
2019-03-03T09:31:12.056Z,1072.00
2019-03-03T09:32:12.043Z,1004.00
2019-03-03T09:33:12.053Z,952.00
2019-03-03T09:34:12.035Z,964.00
2019-03-03T09:35:12.030Z,964.00
2019-03-03T09:36:12.018Z,960.00
2019-03-03T09:37:12.016Z,1024.00
2019-03-03T09:38:12.009Z,1092.00
2019-03-03T09:39:12.008Z,1128.00
2019-03-03T09:40:11.995Z,1136.00
2019-03-03T09:41:11.995Z,1108.00
2019-03-03T09:42:11.987Z,1144.00
2019-03-03T09:43:11.980Z,1152.00
2019-03-03T09:44:11.977Z,1064.00
2019-03-03T09:45:11.975Z,1032.00
2019-03-03T09:46:11.967Z,1008.00
2019-03-03T09:47:11.967Z,1044.00
2019-03-03T09:48:11.957Z,1068.00
2019-03-03T09:49:11.966Z,1088.00
2019-03-03T09:50:11.952Z,1088.00
2019-03-03T09:51:11.964Z,1080.00
2019-03-03T09:52:11.932Z,1168.00
2019-03-03T09:53:11.927Z,1228.00
2019-03-03T09:54:11.923Z,1244.00
2019-03-03T09:55:11.915Z,1260.00
2019-03-03T09:56:11.916Z,1216.00
2019-03-03T09:57:11.913Z,1188.00
2019-03-03T09:58:11.912Z,1208.00
2019-03-03T09:59:11.902Z,1244.00
2019-03-03T10:00:11.889Z,1252.00
2019-03-03T10:01:11.878Z,1196.00
2019-03-03T10:02:11.883Z,1228.00
2019-03-03T10:03:11.874Z,1280.00
2019-03-03T10:04:11.864Z,1268.00
2019-03-03T10:05:11.874Z,1268.00
2019-03-03T10:06:11.859Z,1164.00
2019-03-03T10:07:13.616Z,1196.00
2019-03-03T10:08:11.841Z,1196.00
2019-03-03T10:09:11.837Z,1204.00
2019-03-03T10:10:11.837Z,1324.00
2019-03-03T10:11:11.822Z,1276.00
2019-03-03T10:12:11.825Z,1340.00
2019-03-03T10:13:11.820Z,1408.00
2019-03-03T10:14:11.813Z,1392.00
2019-03-03T10:15:11.802Z,1420.00
2019-03-03T10:16:11.832Z,1452.00
2019-03-03T10:17:11.799Z,1496.00
2019-03-03T10:18:11.791Z,1468.00
2019-03-03T10:19:11.782Z,1432.00
2019-03-03T10:20:11.778Z,1384.00
2019-03-03T10:21:11.770Z,1336.00
2019-03-03T10:22:11.778Z,1280.00
2019-03-03T10:23:11.764Z,1308.00
2019-03-03T10:24:11.771Z,1300.00
2019-03-03T10:25:11.756Z,1336.00
2019-03-03T10:26:11.786Z,1280.00
2019-03-03T10:27:11.752Z,1244.00
2019-03-03T10:28:11.879Z,1348.00
2019-03-03T10:29:11.730Z,1368.00
2019-03-03T10:30:11.728Z,1332.00
2019-03-03T10:31:11.724Z,1304.00
2019-03-03T10:32:11.727Z,1300.00
2019-03-03T10:33:11.710Z,1212.00
2019-03-03T10:34:11.705Z,1152.00
2019-03-03T10:35:11.703Z,1056.00
2019-03-03T10:36:11.709Z,956.00
2019-03-03T10:37:11.694Z,880.00
2019-03-03T10:38:11.689Z,800.00
2019-03-03T10:39:11.680Z,744.00
2019-03-03T10:40:11.677Z,672.00
2019-03-03T10:41:11.670Z,624.00
2019-03-03T10:42:11.668Z,600.00
2019-03-03T10:43:11.658Z,572.00
2019-03-03T10:44:11.655Z,536.00
2019-03-03T10:45:11.648Z,528.00
2019-03-03T10:46:11.672Z,520.00
2019-03-03T10:47:11.657Z,544.00
2019-03-03T10:48:11.639Z,540.00
2019-03-03T10:49:11.626Z,568.00
2019-03-03T10:50:11.627Z,580.00
2019-03-03T10:51:11.615Z,612.00
2019-03-03T10:52:11.614Z,616.00
2019-03-03T10:53:11.603Z,636.00
2019-03-03T10:54:11.611Z,636.00
2019-03-03T10:55:11.597Z,664.00
2019-03-03T10:56:11.599Z,676.00
2019-03-03T10:57:11.587Z,740.00
2019-03-03T10:58:11.576Z,752.00
2019-03-03T10:59:11.580Z,780.00
2019-03-03T11:00:11.603Z,828.00
2019-03-03T11:01:11.562Z,864.00
2019-03-03T11:02:11.560Z,912.00
2019-03-03T11:03:11.548Z,956.00
2019-03-03T11:04:11.549Z,1020.00
2019-03-03T11:05:11.542Z,1052.00
2019-03-03T11:06:11.553Z,1112.00
2019-03-03T11:07:11.626Z,1096.00
2019-03-03T11:08:11.554Z,1104.00
2019-03-03T11:09:11.581Z,1096.00
2019-03-03T11:10:11.524Z,1120.00
2019-03-03T11:11:11.517Z,1088.00
2019-03-03T11:12:11.549Z,1100.00
2019-03-03T11:13:11.534Z,1104.00
2019-03-03T11:14:11.545Z,1100.00
2019-03-03T11:15:18.178Z,1212.00
2019-03-03T11:16:11.575Z,1264.00
2019-03-03T11:17:11.538Z,1272.00
2019-03-03T11:18:11.480Z,1264.00
2019-03-03T11:19:11.514Z,1236.00
2019-03-03T11:20:11.461Z,1248.00
2019-03-03T11:21:11.485Z,1212.00
2019-03-03T11:22:11.473Z,1188.00
2019-03-03T11:23:11.471Z,1248.00
2019-03-03T11:24:11.482Z,1180.00
2019-03-03T11:25:11.572Z,1236.00
2019-03-03T11:26:11.436Z,1240.00
2019-03-03T11:27:11.424Z,1260.00
2019-03-03T11:28:11.417Z,1236.00
2019-03-03T11:29:11.414Z,1256.00
2019-03-03T11:30:11.416Z,1312.00
2019-03-03T11:31:11.409Z,1400.00
2019-03-03T11:32:11.394Z,1492.00
2019-03-03T11:33:11.408Z,1596.00
2019-03-03T11:34:11.392Z,1608.00
2019-03-03T11:35:11.382Z,1676.00
2019-03-03T11:36:11.376Z,1724.00
2019-03-03T11:37:11.378Z,1760.00
2019-03-03T11:38:11.389Z,1808.00
2019-03-03T11:39:11.369Z,1816.00
2019-03-03T11:40:11.369Z,1756.00
2019-03-03T11:41:11.373Z,1824.00
2019-03-03T11:42:11.365Z,1756.00
2019-03-03T11:43:11.367Z,1764.00
2019-03-03T11:44:11.338Z,1788.00
2019-03-03T11:45:11.342Z,1808.00
2019-03-03T11:46:11.333Z,1780.00
2019-03-03T11:47:11.330Z,1740.00
2019-03-03T11:48:11.328Z,1720.00
2019-03-03T11:49:11.325Z,1676.00
2019-03-03T11:50:11.346Z,1588.00
2019-03-03T11:51:11.332Z,1492.00
2019-03-03T11:52:11.346Z,1504.00
2019-03-03T11:53:11.372Z,1476.00
2019-03-03T11:54:11.328Z,1352.00
2019-03-03T11:55:11.293Z,1552.00
2019-03-03T11:56:11.289Z,1576.00
2019-03-03T11:57:11.287Z,1468.00
2019-03-03T11:58:11.280Z,1436.00
2019-03-03T11:59:11.285Z,1420.00
2019-03-03T12:00:11.294Z,1452.00
2019-03-03T12:01:11.260Z,1492.00
2019-03-03T12:02:11.262Z,1508.00
2019-03-03T12:03:12.577Z,1516.00
2019-03-03T12:04:11.250Z,1564.00
2019-03-03T12:05:11.254Z,1556.00
2019-03-03T12:06:11.237Z,1508.00
2019-03-03T12:07:11.243Z,1540.00
2019-03-03T12:08:11.232Z,1400.00
2019-03-03T12:09:11.270Z,1448.00
2019-03-03T12:10:11.258Z,1420.00
2019-03-03T12:11:11.251Z,1472.00
2019-03-03T12:12:11.214Z,1620.00
2019-03-03T12:13:11.265Z,1616.00
2019-03-03T12:14:11.251Z,1612.00
2019-03-03T12:15:11.240Z,1628.00
2019-03-03T12:16:11.194Z,1628.00
2019-03-03T12:17:11.206Z,1684.00
2019-03-03T12:18:11.241Z,1740.00
2019-03-03T12:19:11.220Z,1752.00
2019-03-03T12:20:11.208Z,1744.00
2019-03-03T12:21:11.263Z,1704.00
2019-03-03T12:22:11.184Z,1616.00
2019-03-03T12:23:11.195Z,1532.00
2019-03-03T12:24:11.201Z,1464.00
2019-03-03T12:25:11.162Z,1408.00
2019-03-03T12:26:11.218Z,1360.00
2019-03-03T12:27:11.163Z,1324.00
2019-03-03T12:28:11.185Z,1296.00
2019-03-03T12:29:11.784Z,1272.00
2019-03-03T12:30:11.166Z,1240.00
2019-03-03T12:31:11.144Z,1224.00
2019-03-03T12:32:11.153Z,1216.00
2019-03-03T12:33:11.163Z,1168.00
2019-03-03T12:34:11.131Z,1156.00
2019-03-03T12:35:11.121Z,1144.00
2019-03-03T12:36:11.177Z,1080.00
2019-03-03T12:37:11.169Z,1088.00
2019-03-03T12:38:11.172Z,1116.00
2019-03-03T12:39:11.114Z,1156.00
2019-03-03T12:40:11.103Z,1156.00
2019-03-03T12:41:11.100Z,1124.00
2019-03-03T12:42:11.108Z,1088.00
2019-03-03T12:43:11.112Z,1048.00
2019-03-03T12:44:11.090Z,1008.00
2019-03-03T12:45:11.087Z,996.00
2019-03-03T12:46:11.094Z,956.00
2019-03-03T12:47:11.076Z,932.00
2019-03-03T12:48:11.070Z,888.00
2019-03-03T12:49:11.094Z,844.00
2019-03-03T12:50:11.099Z,848.00
2019-03-03T12:51:11.106Z,816.00
2019-03-03T12:52:11.049Z,828.00
2019-03-03T12:53:11.070Z,796.00
2019-03-03T12:54:11.043Z,804.00
2019-03-03T12:55:11.036Z,772.00
2019-03-03T12:56:11.052Z,756.00
2019-03-03T12:57:11.068Z,720.00
2019-03-03T12:58:11.030Z,692.00
2019-03-03T12:59:11.027Z,700.00
2019-03-03T13:00:11.562Z,708.00
2019-03-03T13:01:11.028Z,664.00
2019-03-03T13:02:10.999Z,620.00
2019-03-03T13:03:10.998Z,576.00
2019-03-03T13:04:11.004Z,556.00
2019-03-03T13:05:11.012Z,584.00
2019-03-03T13:06:11.003Z,600.00
2019-03-03T13:07:11.024Z,632.00